sensor_id;sensor_type;location;lat;lon;timestamp;P1;durP1;ratioP1;P2;durP2;ratioP2
828;SDS011;396;52.558;13.188;2022-08-21T00:01:16;6.10;;;3.47;;
828;SDS011;396;52.558;13.188;2022-08-21T00:03:45;8.37;;;4.03;;
828;SDS011;396;52.558;13.188;2022-08-21T00:06:12;7.43;;;3.57;;
828;SDS011;396;52.558;13.188;2022-08-21T00:08:39;7.80;;;3.90;;
828;SDS011;396;52.558;13.188;2022-08-21T00:11:06;7.63;;;4.27;;
828;SDS011;396;52.558;13.188;2022-08-21T00:13:34;7.00;;;4.20;;
828;SDS011;396;52.558;13.188;2022-08-21T00:16:00;8.80;;;4.00;;
828;SDS011;396;52.558;13.188;2022-08-21T00:18:28;6.80;;;4.20;;
828;SDS011;396;52.558;13.188;2022-08-21T00:20:54;18.10;;;4.50;;
828;SDS011;396;52.558;13.188;2022-08-21T00:23:21;9.20;;;4.57;;
828;SDS011;396;52.558;13.188;2022-08-21T00:25:48;6.90;;;3.87;;
828;SDS011;396;52.558;13.188;2022-08-21T00:28:15;8.90;;;4.20;;
828;SDS011;396;52.558;13.188;2022-08-21T00:30:43;5.23;;;2.80;;
828;SDS011;396;52.558;13.188;2022-08-21T00:33:10;6.90;;;3.50;;
828;SDS011;396;52.558;13.188;2022-08-21T00:35:38;7.70;;;4.13;;
828;SDS011;396;52.558;13.188;2022-08-21T00:38:07;7.07;;;3.83;;
828;SDS011;396;52.558;13.188;2022-08-21T00:40:38;7.83;;;4.10;;
828;SDS011;396;52.558;13.188;2022-08-21T00:43:08;6.20;;;3.90;;
828;SDS011;396;52.558;13.188;2022-08-21T00:45:36;7.03;;;4.73;;
828;SDS011;396;52.558;13.188;2022-08-21T00:48:04;7.20;;;3.83;;
828;SDS011;396;52.558;13.188;2022-08-21T00:50:33;7.17;;;3.73;;
828;SDS011;396;52.558;13.188;2022-08-21T00:53:02;8.90;;;4.03;;
828;SDS011;396;52.558;13.188;2022-08-21T00:55:31;7.37;;;4.00;;
828;SDS011;396;52.558;13.188;2022-08-21T00:57:59;8.23;;;3.63;;
828;SDS011;396;52.558;13.188;2022-08-21T01:00:28;7.03;;;3.80;;
828;SDS011;396;52.558;13.188;2022-08-21T01:02:58;9.33;;;4.30;;
828;SDS011;396;52.558;13.188;2022-08-21T01:05:28;7.13;;;3.53;;
828;SDS011;396;52.558;13.188;2022-08-21T01:07:54;10.13;;;4.90;;
828;SDS011;396;52.558;13.188;2022-08-21T01:10:22;11.23;;;4.30;;
828;SDS011;396;52.558;13.188;2022-08-21T01:12:49;8.77;;;4.83;;
828;SDS011;396;52.558;13.188;2022-08-21T01:15:16;7.83;;;3.80;;
828;SDS011;396;52.558;13.188;2022-08-21T01:17:44;9.30;;;4.20;;
828;SDS011;396;52.558;13.188;2022-08-21T01:20:12;7.50;;;4.60;;
828;SDS011;396;52.558;13.188;2022-08-21T01:22:40;7.43;;;3.80;;
828;SDS011;396;52.558;13.188;2022-08-21T01:25:07;8.30;;;3.97;;
828;SDS011;396;52.558;13.188;2022-08-21T01:27:35;8.33;;;4.50;;
828;SDS011;396;52.558;13.188;2022-08-21T01:30:04;7.30;;;3.93;;
828;SDS011;396;52.558;13.188;2022-08-21T01:32:35;8.43;;;4.10;;
828;SDS011;396;52.558;13.188;2022-08-21T01:35:03;5.80;;;3.10;;
828;SDS011;396;52.558;13.188;2022-08-21T01:37:31;6.70;;;3.47;;
828;SDS011;396;52.558;13.188;2022-08-21T01:39:59;8.23;;;4.67;;
828;SDS011;396;52.558;13.188;2022-08-21T01:42:26;9.13;;;4.53;;
828;SDS011;396;52.558;13.188;2022-08-21T01:44:52;7.03;;;3.20;;
828;SDS011;396;52.558;13.188;2022-08-21T01:47:19;8.30;;;4.87;;
828;SDS011;396;52.558;13.188;2022-08-21T01:49:45;6.10;;;3.90;;
828;SDS011;396;52.558;13.188;2022-08-21T01:52:12;8.27;;;3.90;;
828;SDS011;396;52.558;13.188;2022-08-21T01:54:38;8.20;;;4.10;;
828;SDS011;396;52.558;13.188;2022-08-21T01:57:06;8.13;;;4.30;;
828;SDS011;396;52.558;13.188;2022-08-21T01:59:34;7.53;;;3.80;;
828;SDS011;396;52.558;13.188;2022-08-21T02:02:02;7.90;;;4.63;;
828;SDS011;396;52.558;13.188;2022-08-21T02:04:29;5.83;;;3.53;;
828;SDS011;396;52.558;13.188;2022-08-21T02:06:56;9.10;;;4.23;;
828;SDS011;396;52.558;13.188;2022-08-21T02:09:23;7.57;;;4.00;;
828;SDS011;396;52.558;13.188;2022-08-21T02:11:49;7.40;;;4.30;;
828;SDS011;396;52.558;13.188;2022-08-21T02:14:17;13.50;;;4.00;;
828;SDS011;396;52.558;13.188;2022-08-21T02:16:44;6.57;;;3.53;;
828;SDS011;396;52.558;13.188;2022-08-21T02:19:11;8.17;;;4.00;;
828;SDS011;396;52.558;13.188;2022-08-21T02:21:41;6.27;;;3.23;;
828;SDS011;396;52.558;13.188;2022-08-21T02:24:08;8.07;;;4.50;;
828;SDS011;396;52.558;13.188;2022-08-21T02:26:35;6.37;;;3.43;;
828;SDS011;396;52.558;13.188;2022-08-21T02:29:02;8.53;;;3.87;;
828;SDS011;396;52.558;13.188;2022-08-21T02:31:31;8.90;;;5.13;;
828;SDS011;396;52.558;13.188;2022-08-21T02:33:58;8.10;;;3.70;;
828;SDS011;396;52.558;13.188;2022-08-21T02:36:24;4.60;;;2.63;;
828;SDS011;396;52.558;13.188;2022-08-21T02:38:51;6.00;;;3.00;;
828;SDS011;396;52.558;13.188;2022-08-21T02:41:18;5.83;;;2.90;;
828;SDS011;396;52.558;13.188;2022-08-21T02:43:46;5.70;;;3.40;;
828;SDS011;396;52.558;13.188;2022-08-21T02:46:14;7.10;;;3.37;;
828;SDS011;396;52.558;13.188;2022-08-21T02:48:44;5.27;;;2.70;;
828;SDS011;396;52.558;13.188;2022-08-21T02:51:12;8.30;;;3.20;;
828;SDS011;396;52.558;13.188;2022-08-21T02:53:42;6.53;;;3.30;;
828;SDS011;396;52.558;13.188;2022-08-21T02:56:10;6.40;;;3.30;;
828;SDS011;396;52.558;13.188;2022-08-21T02:58:39;7.00;;;4.00;;
828;SDS011;396;52.558;13.188;2022-08-21T03:01:07;12.10;;;3.90;;
828;SDS011;396;52.558;13.188;2022-08-21T03:03:34;7.60;;;3.63;;
828;SDS011;396;52.558;13.188;2022-08-21T03:06:03;7.50;;;3.73;;
828;SDS011;396;52.558;13.188;2022-08-21T03:08:30;7.80;;;3.57;;
828;SDS011;396;52.558;13.188;2022-08-21T03:10:56;7.60;;;3.40;;
828;SDS011;396;52.558;13.188;2022-08-21T03:13:26;6.53;;;3.60;;
828;SDS011;396;52.558;13.188;2022-08-21T03:15:52;6.53;;;3.80;;
828;SDS011;396;52.558;13.188;2022-08-21T03:18:20;6.80;;;4.20;;
828;SDS011;396;52.558;13.188;2022-08-21T03:20:47;7.80;;;4.70;;
828;SDS011;396;52.558;13.188;2022-08-21T03:23:16;6.53;;;3.50;;
828;SDS011;396;52.558;13.188;2022-08-21T03:25:44;6.73;;;3.80;;
828;SDS011;396;52.558;13.188;2022-08-21T03:28:12;10.13;;;4.10;;
828;SDS011;396;52.558;13.188;2022-08-21T03:30:42;6.50;;;3.10;;
828;SDS011;396;52.558;13.188;2022-08-21T03:33:09;8.33;;;3.57;;
828;SDS011;396;52.558;13.188;2022-08-21T03:35:36;9.07;;;3.97;;
828;SDS011;396;52.558;13.188;2022-08-21T03:38:02;6.40;;;3.33;;
828;SDS011;396;52.558;13.188;2022-08-21T03:40:31;7.20;;;3.10;;
828;SDS011;396;52.558;13.188;2022-08-21T03:42:57;8.23;;;3.23;;
828;SDS011;396;52.558;13.188;2022-08-21T03:45:24;6.33;;;3.33;;
828;SDS011;396;52.558;13.188;2022-08-21T03:47:51;5.47;;;3.20;;
828;SDS011;396;52.558;13.188;2022-08-21T03:50:20;5.60;;;2.43;;
828;SDS011;396;52.558;13.188;2022-08-21T03:52:48;5.90;;;3.47;;
828;SDS011;396;52.558;13.188;2022-08-21T03:55:15;7.23;;;3.40;;
828;SDS011;396;52.558;13.188;2022-08-21T03:57:43;6.07;;;3.37;;
828;SDS011;396;52.558;13.188;2022-08-21T04:00:10;6.60;;;3.53;;
828;SDS011;396;52.558;13.188;2022-08-21T04:02:38;10.17;;;3.50;;
828;SDS011;396;52.558;13.188;2022-08-21T04:05:05;6.97;;;3.40;;
828;SDS011;396;52.558;13.188;2022-08-21T04:07:33;7.23;;;3.60;;
828;SDS011;396;52.558;13.188;2022-08-21T04:10:00;6.07;;;3.83;;
828;SDS011;396;52.558;13.188;2022-08-21T04:12:26;7.17;;;3.57;;
828;SDS011;396;52.558;13.188;2022-08-21T04:14:54;8.03;;;3.60;;
828;SDS011;396;52.558;13.188;2022-08-21T04:17:21;6.50;;;3.60;;
828;SDS011;396;52.558;13.188;2022-08-21T04:19:47;10.97;;;3.20;;
828;SDS011;396;52.558;13.188;2022-08-21T04:22:14;6.03;;;2.73;;
828;SDS011;396;52.558;13.188;2022-08-21T04:24:41;7.53;;;3.40;;
828;SDS011;396;52.558;13.188;2022-08-21T04:27:07;6.97;;;3.90;;
828;SDS011;396;52.558;13.188;2022-08-21T04:29:34;6.87;;;3.37;;
828;SDS011;396;52.558;13.188;2022-08-21T04:32:02;6.80;;;3.53;;
828;SDS011;396;52.558;13.188;2022-08-21T04:34:29;6.43;;;3.40;;
828;SDS011;396;52.558;13.188;2022-08-21T04:36:55;5.20;;;2.83;;
828;SDS011;396;52.558;13.188;2022-08-21T04:39:22;7.50;;;3.30;;
828;SDS011;396;52.558;13.188;2022-08-21T04:41:48;6.80;;;3.50;;
828;SDS011;396;52.558;13.188;2022-08-21T04:44:15;11.80;;;3.87;;
828;SDS011;396;52.558;13.188;2022-08-21T04:46:41;5.70;;;2.77;;
828;SDS011;396;52.558;13.188;2022-08-21T04:49:09;6.37;;;3.47;;
828;SDS011;396;52.558;13.188;2022-08-21T04:51:36;7.67;;;3.10;;
828;SDS011;396;52.558;13.188;2022-08-21T04:54:06;6.20;;;3.30;;
828;SDS011;396;52.558;13.188;2022-08-21T04:56:36;7.40;;;3.27;;
828;SDS011;396;52.558;13.188;2022-08-21T04:59:07;14.23;;;2.97;;
828;SDS011;396;52.558;13.188;2022-08-21T05:01:39;6.97;;;3.50;;
828;SDS011;396;52.558;13.188;2022-08-21T05:04:07;10.20;;;3.03;;
828;SDS011;396;52.558;13.188;2022-08-21T05:06:38;6.20;;;3.17;;
828;SDS011;396;52.558;13.188;2022-08-21T05:09:08;7.33;;;3.57;;
828;SDS011;396;52.558;13.188;2022-08-21T05:11:38;5.40;;;2.83;;
828;SDS011;396;52.558;13.188;2022-08-21T05:14:05;5.33;;;2.93;;
828;SDS011;396;52.558;13.188;2022-08-21T05:16:32;7.83;;;3.60;;
828;SDS011;396;52.558;13.188;2022-08-21T05:18:58;4.90;;;2.90;;
828;SDS011;396;52.558;13.188;2022-08-21T05:21:26;7.87;;;3.93;;
828;SDS011;396;52.558;13.188;2022-08-21T05:23:53;6.70;;;3.80;;
828;SDS011;396;52.558;13.188;2022-08-21T05:26:19;6.37;;;2.90;;
828;SDS011;396;52.558;13.188;2022-08-21T05:28:46;10.60;;;3.33;;
828;SDS011;396;52.558;13.188;2022-08-21T05:31:12;10.13;;;3.60;;
828;SDS011;396;52.558;13.188;2022-08-21T05:33:39;6.10;;;3.13;;
828;SDS011;396;52.558;13.188;2022-08-21T05:36:05;5.30;;;2.90;;
828;SDS011;396;52.558;13.188;2022-08-21T05:38:33;6.70;;;3.90;;
828;SDS011;396;52.558;13.188;2022-08-21T05:41:00;9.63;;;4.10;;
828;SDS011;396;52.558;13.188;2022-08-21T05:43:26;10.70;;;3.80;;
828;SDS011;396;52.558;13.188;2022-08-21T05:45:53;6.50;;;3.40;;
828;SDS011;396;52.558;13.188;2022-08-21T05:48:20;6.13;;;3.10;;
828;SDS011;396;52.558;13.188;2022-08-21T05:50:49;5.10;;;2.73;;
828;SDS011;396;52.558;13.188;2022-08-21T05:53:18;5.57;;;2.73;;
828;SDS011;396;52.558;13.188;2022-08-21T05:55:47;6.10;;;2.60;;
828;SDS011;396;52.558;13.188;2022-08-21T05:58:14;5.90;;;2.70;;
828;SDS011;396;52.558;13.188;2022-08-21T06:00:42;3.77;;;1.90;;
828;SDS011;396;52.558;13.188;2022-08-21T06:03:10;5.30;;;2.60;;
828;SDS011;396;52.558;13.188;2022-08-21T06:05:38;5.47;;;2.80;;
828;SDS011;396;52.558;13.188;2022-08-21T06:08:04;4.20;;;2.00;;
828;SDS011;396;52.558;13.188;2022-08-21T06:10:31;5.20;;;2.20;;
828;SDS011;396;52.558;13.188;2022-08-21T06:12:58;6.07;;;2.97;;
828;SDS011;396;52.558;13.188;2022-08-21T06:15:25;3.90;;;1.60;;
828;SDS011;396;52.558;13.188;2022-08-21T06:17:52;7.90;;;2.40;;
828;SDS011;396;52.558;13.188;2022-08-21T06:20:18;9.50;;;2.10;;
828;SDS011;396;52.558;13.188;2022-08-21T06:22:45;5.60;;;2.47;;
828;SDS011;396;52.558;13.188;2022-08-21T06:25:11;5.70;;;1.70;;
828;SDS011;396;52.558;13.188;2022-08-21T06:27:38;4.70;;;2.30;;
828;SDS011;396;52.558;13.188;2022-08-21T06:30:07;4.33;;;2.50;;
828;SDS011;396;52.558;13.188;2022-08-21T06:32:34;5.40;;;2.87;;
828;SDS011;396;52.558;13.188;2022-08-21T06:35:02;6.33;;;2.87;;
828;SDS011;396;52.558;13.188;2022-08-21T06:37:29;5.10;;;2.73;;
828;SDS011;396;52.558;13.188;2022-08-21T06:39:56;5.50;;;2.27;;
828;SDS011;396;52.558;13.188;2022-08-21T06:42:22;12.10;;;2.80;;
828;SDS011;396;52.558;13.188;2022-08-21T06:44:49;6.37;;;2.73;;
828;SDS011;396;52.558;13.188;2022-08-21T06:47:17;7.00;;;2.67;;
828;SDS011;396;52.558;13.188;2022-08-21T06:49:43;8.20;;;2.30;;
828;SDS011;396;52.558;13.188;2022-08-21T06:52:10;4.67;;;2.30;;
828;SDS011;396;52.558;13.188;2022-08-21T06:54:37;7.80;;;2.23;;
828;SDS011;396;52.558;13.188;2022-08-21T06:57:05;6.03;;;2.63;;
828;SDS011;396;52.558;13.188;2022-08-21T06:59:32;7.00;;;3.20;;
828;SDS011;396;52.558;13.188;2022-08-21T07:01:59;5.80;;;2.10;;
828;SDS011;396;52.558;13.188;2022-08-21T07:04:27;5.43;;;2.50;;
828;SDS011;396;52.558;13.188;2022-08-21T07:06:54;4.43;;;1.90;;
828;SDS011;396;52.558;13.188;2022-08-21T07:09:20;4.53;;;1.90;;
828;SDS011;396;52.558;13.188;2022-08-21T07:11:47;4.70;;;2.40;;
828;SDS011;396;52.558;13.188;2022-08-21T07:14:17;6.07;;;2.20;;
828;SDS011;396;52.558;13.188;2022-08-21T07:16:44;9.17;;;2.60;;
828;SDS011;396;52.558;13.188;2022-08-21T07:19:10;5.67;;;2.30;;
828;SDS011;396;52.558;13.188;2022-08-21T07:21:38;4.10;;;1.97;;
828;SDS011;396;52.558;13.188;2022-08-21T07:24:05;5.80;;;2.90;;
828;SDS011;396;52.558;13.188;2022-08-21T07:26:31;4.93;;;1.80;;
828;SDS011;396;52.558;13.188;2022-08-21T07:28:58;5.57;;;2.60;;
828;SDS011;396;52.558;13.188;2022-08-21T07:31:25;5.23;;;2.50;;
828;SDS011;396;52.558;13.188;2022-08-21T07:33:52;9.67;;;2.53;;
828;SDS011;396;52.558;13.188;2022-08-21T07:36:19;4.33;;;1.77;;
828;SDS011;396;52.558;13.188;2022-08-21T07:38:47;4.40;;;1.90;;
828;SDS011;396;52.558;13.188;2022-08-21T07:41:15;5.50;;;2.23;;
828;SDS011;396;52.558;13.188;2022-08-21T07:43:43;4.03;;;1.50;;
828;SDS011;396;52.558;13.188;2022-08-21T07:46:10;4.20;;;2.33;;
828;SDS011;396;52.558;13.188;2022-08-21T07:48:37;6.00;;;2.50;;
828;SDS011;396;52.558;13.188;2022-08-21T07:51:05;6.07;;;2.27;;
828;SDS011;396;52.558;13.188;2022-08-21T07:53:33;9.83;;;2.40;;
828;SDS011;396;52.558;13.188;2022-08-21T07:56:02;3.63;;;1.20;;
828;SDS011;396;52.558;13.188;2022-08-21T07:58:29;3.90;;;1.80;;
828;SDS011;396;52.558;13.188;2022-08-21T08:00:56;9.63;;;2.33;;
828;SDS011;396;52.558;13.188;2022-08-21T08:03:22;4.67;;;1.73;;
828;SDS011;396;52.558;13.188;2022-08-21T08:05:49;3.53;;;1.37;;
828;SDS011;396;52.558;13.188;2022-08-21T08:08:15;6.57;;;1.40;;
828;SDS011;396;52.558;13.188;2022-08-21T08:10:44;4.03;;;1.50;;
828;SDS011;396;52.558;13.188;2022-08-21T08:13:13;6.03;;;1.77;;
828;SDS011;396;52.558;13.188;2022-08-21T08:15:39;3.83;;;1.40;;
828;SDS011;396;52.558;13.188;2022-08-21T08:18:06;4.63;;;1.90;;
828;SDS011;396;52.558;13.188;2022-08-21T08:20:32;3.60;;;1.50;;
828;SDS011;396;52.558;13.188;2022-08-21T08:23:01;4.40;;;1.90;;
828;SDS011;396;52.558;13.188;2022-08-21T08:25:28;5.17;;;1.30;;
828;SDS011;396;52.558;13.188;2022-08-21T08:27:55;3.83;;;1.33;;
828;SDS011;396;52.558;13.188;2022-08-21T08:30:23;3.23;;;1.23;;
828;SDS011;396;52.558;13.188;2022-08-21T08:32:49;3.47;;;1.30;;
828;SDS011;396;52.558;13.188;2022-08-21T08:35:17;3.63;;;1.10;;
828;SDS011;396;52.558;13.188;2022-08-21T08:37:44;3.50;;;1.30;;
828;SDS011;396;52.558;13.188;2022-08-21T08:40:11;4.00;;;1.20;;
828;SDS011;396;52.558;13.188;2022-08-21T08:42:39;8.53;;;1.20;;
828;SDS011;396;52.558;13.188;2022-08-21T08:45:08;2.80;;;0.80;;
828;SDS011;396;52.558;13.188;2022-08-21T08:47:38;2.87;;;0.90;;
828;SDS011;396;52.558;13.188;2022-08-21T08:50:08;3.13;;;1.10;;
828;SDS011;396;52.558;13.188;2022-08-21T08:52:43;6.30;;;1.40;;
828;SDS011;396;52.558;13.188;2022-08-21T08:55:17;3.50;;;1.00;;
828;SDS011;396;52.558;13.188;2022-08-21T08:57:47;3.80;;;1.23;;
828;SDS011;396;52.558;13.188;2022-08-21T09:00:16;4.03;;;1.37;;
828;SDS011;396;52.558;13.188;2022-08-21T09:02:47;7.33;;;1.47;;
828;SDS011;396;52.558;13.188;2022-08-21T09:05:19;4.67;;;1.40;;
828;SDS011;396;52.558;13.188;2022-08-21T09:07:51;3.50;;;1.10;;
828;SDS011;396;52.558;13.188;2022-08-21T09:10:30;3.90;;;1.40;;
828;SDS011;396;52.558;13.188;2022-08-21T09:13:06;6.10;;;1.20;;
828;SDS011;396;52.558;13.188;2022-08-21T09:15:42;3.40;;;1.30;;
828;SDS011;396;52.558;13.188;2022-08-21T09:18:24;5.13;;;1.10;;
828;SDS011;396;52.558;13.188;2022-08-21T09:21:02;3.63;;;1.13;;
828;SDS011;396;52.558;13.188;2022-08-21T09:23:42;3.17;;;1.00;;
828;SDS011;396;52.558;13.188;2022-08-21T09:26:17;3.33;;;1.07;;
828;SDS011;396;52.558;13.188;2022-08-21T09:28:45;3.23;;;1.03;;
828;SDS011;396;52.558;13.188;2022-08-21T09:31:21;3.57;;;1.20;;
828;SDS011;396;52.558;13.188;2022-08-21T09:33:50;3.00;;;1.07;;
828;SDS011;396;52.558;13.188;2022-08-21T09:36:24;3.00;;;1.13;;
828;SDS011;396;52.558;13.188;2022-08-21T09:39:00;4.53;;;1.43;;
828;SDS011;396;52.558;13.188;2022-08-21T09:41:28;4.60;;;1.47;;
828;SDS011;396;52.558;13.188;2022-08-21T09:43:56;4.50;;;1.17;;
828;SDS011;396;52.558;13.188;2022-08-21T09:46:24;7.50;;;1.33;;
828;SDS011;396;52.558;13.188;2022-08-21T09:48:53;3.60;;;0.80;;
828;SDS011;396;52.558;13.188;2022-08-21T09:51:21;2.70;;;0.90;;
828;SDS011;396;52.558;13.188;2022-08-21T09:53:52;2.73;;;0.80;;
828;SDS011;396;52.558;13.188;2022-08-21T09:56:30;2.60;;;0.67;;
828;SDS011;396;52.558;13.188;2022-08-21T09:59:26;4.33;;;0.97;;
828;SDS011;396;52.558;13.188;2022-08-21T10:01:56;5.60;;;1.00;;
828;SDS011;396;52.558;13.188;2022-08-21T10:04:28;3.77;;;1.27;;
828;SDS011;396;52.558;13.188;2022-08-21T10:07:05;6.10;;;0.90;;
828;SDS011;396;52.558;13.188;2022-08-21T10:09:33;2.67;;;0.77;;
828;SDS011;396;52.558;13.188;2022-08-21T10:12:08;3.90;;;1.00;;
828;SDS011;396;52.558;13.188;2022-08-21T10:14:44;3.33;;;0.90;;
828;SDS011;396;52.558;13.188;2022-08-21T10:17:23;2.87;;;0.97;;
828;SDS011;396;52.558;13.188;2022-08-21T10:19:59;3.70;;;1.00;;
828;SDS011;396;52.558;13.188;2022-08-21T10:22:32;3.20;;;1.10;;
828;SDS011;396;52.558;13.188;2022-08-21T10:27:33;3.63;;;1.30;;
828;SDS011;396;52.558;13.188;2022-08-21T10:30:09;4.67;;;1.20;;
828;SDS011;396;52.558;13.188;2022-08-21T10:33:01;3.30;;;1.03;;
828;SDS011;396;52.558;13.188;2022-08-21T10:35:41;2.80;;;0.97;;
828;SDS011;396;52.558;13.188;2022-08-21T10:41:09;2.70;;;0.80;;
828;SDS011;396;52.558;13.188;2022-08-21T10:43:46;3.20;;;0.90;;
828;SDS011;396;52.558;13.188;2022-08-21T10:46:20;5.13;;;0.93;;
828;SDS011;396;52.558;13.188;2022-08-21T10:48:54;2.70;;;0.73;;
828;SDS011;396;52.558;13.188;2022-08-21T10:51:29;6.40;;;1.53;;
828;SDS011;396;52.558;13.188;2022-08-21T10:54:04;3.00;;;0.80;;
828;SDS011;396;52.558;13.188;2022-08-21T10:56:35;2.60;;;0.70;;
828;SDS011;396;52.558;13.188;2022-08-21T10:59:07;3.00;;;1.00;;
828;SDS011;396;52.558;13.188;2022-08-21T11:01:46;3.20;;;1.03;;
828;SDS011;396;52.558;13.188;2022-08-21T11:04:19;2.87;;;0.77;;
828;SDS011;396;52.558;13.188;2022-08-21T11:06:56;6.23;;;1.13;;
828;SDS011;396;52.558;13.188;2022-08-21T11:09:26;8.10;;;1.17;;
828;SDS011;396;52.558;13.188;2022-08-21T11:11:54;4.10;;;1.13;;
828;SDS011;396;52.558;13.188;2022-08-21T11:14:29;4.90;;;1.00;;
828;SDS011;396;52.558;13.188;2022-08-21T11:17:05;3.23;;;1.10;;
828;SDS011;396;52.558;13.188;2022-08-21T11:19:35;3.57;;;0.90;;
828;SDS011;396;52.558;13.188;2022-08-21T11:22:08;7.97;;;1.20;;
828;SDS011;396;52.558;13.188;2022-08-21T11:24:41;3.63;;;1.30;;
828;SDS011;396;52.558;13.188;2022-08-21T11:27:16;2.50;;;0.60;;
828;SDS011;396;52.558;13.188;2022-08-21T11:29:50;4.57;;;1.23;;
828;SDS011;396;52.558;13.188;2022-08-21T11:32:25;3.07;;;0.83;;
828;SDS011;396;52.558;13.188;2022-08-21T11:35:03;3.40;;;1.00;;
828;SDS011;396;52.558;13.188;2022-08-21T11:37:43;3.20;;;1.10;;
828;SDS011;396;52.558;13.188;2022-08-21T11:40:21;3.17;;;1.03;;
828;SDS011;396;52.558;13.188;2022-08-21T11:42:59;2.80;;;0.97;;
828;SDS011;396;52.558;13.188;2022-08-21T11:45:38;3.70;;;1.03;;
828;SDS011;396;52.558;13.188;2022-08-21T11:48:11;3.00;;;0.83;;
828;SDS011;396;52.558;13.188;2022-08-21T11:50:46;3.40;;;0.63;;
828;SDS011;396;52.558;13.188;2022-08-21T11:53:17;3.20;;;0.80;;
828;SDS011;396;52.558;13.188;2022-08-21T11:55:50;2.70;;;0.67;;
828;SDS011;396;52.558;13.188;2022-08-21T11:58:23;2.77;;;0.90;;
828;SDS011;396;52.558;13.188;2022-08-21T12:00:55;3.50;;;1.00;;
828;SDS011;396;52.558;13.188;2022-08-21T12:03:25;4.50;;;1.00;;
828;SDS011;396;52.558;13.188;2022-08-21T12:05:54;2.83;;;0.80;;
828;SDS011;396;52.558;13.188;2022-08-21T12:08:28;2.70;;;0.70;;
828;SDS011;396;52.558;13.188;2022-08-21T12:11:01;4.10;;;1.10;;
828;SDS011;396;52.558;13.188;2022-08-21T12:13:31;2.97;;;0.73;;
828;SDS011;396;52.558;13.188;2022-08-21T12:16:10;2.50;;;0.80;;
828;SDS011;396;52.558;13.188;2022-08-21T12:18:38;4.50;;;0.80;;
828;SDS011;396;52.558;13.188;2022-08-21T12:21:16;3.87;;;1.10;;
828;SDS011;396;52.558;13.188;2022-08-21T12:23:48;2.43;;;0.73;;
828;SDS011;396;52.558;13.188;2022-08-21T12:26:26;2.80;;;0.73;;
828;SDS011;396;52.558;13.188;2022-08-21T12:29:04;5.03;;;0.97;;
828;SDS011;396;52.558;13.188;2022-08-21T12:31:35;3.80;;;1.20;;
828;SDS011;396;52.558;13.188;2022-08-21T12:34:18;4.00;;;1.07;;
828;SDS011;396;52.558;13.188;2022-08-21T12:36:52;3.83;;;1.10;;
828;SDS011;396;52.558;13.188;2022-08-21T12:39:23;2.50;;;0.80;;
828;SDS011;396;52.558;13.188;2022-08-21T12:41:55;4.20;;;0.90;;
828;SDS011;396;52.558;13.188;2022-08-21T12:44:28;3.00;;;1.20;;
828;SDS011;396;52.558;13.188;2022-08-21T12:47:02;2.97;;;1.00;;
828;SDS011;396;52.558;13.188;2022-08-21T12:49:31;3.37;;;1.17;;
828;SDS011;396;52.558;13.188;2022-08-21T12:52:02;3.83;;;1.20;;
828;SDS011;396;52.558;13.188;2022-08-21T12:54:39;3.27;;;1.00;;
828;SDS011;396;52.558;13.188;2022-08-21T12:57:07;3.67;;;1.03;;
828;SDS011;396;52.558;13.188;2022-08-21T12:59:36;13.80;;;1.20;;
828;SDS011;396;52.558;13.188;2022-08-21T13:02:08;2.87;;;1.30;;
828;SDS011;396;52.558;13.188;2022-08-21T13:04:41;17.23;;;1.87;;
828;SDS011;396;52.558;13.188;2022-08-21T13:07:11;3.00;;;0.70;;
828;SDS011;396;52.558;13.188;2022-08-21T13:09:42;4.43;;;1.30;;
828;SDS011;396;52.558;13.188;2022-08-21T13:12:12;4.87;;;0.73;;
828;SDS011;396;52.558;13.188;2022-08-21T13:14:41;2.70;;;1.00;;
828;SDS011;396;52.558;13.188;2022-08-21T13:17:11;3.93;;;1.20;;
828;SDS011;396;52.558;13.188;2022-08-21T13:19:38;3.87;;;1.20;;
828;SDS011;396;52.558;13.188;2022-08-21T13:22:05;4.67;;;1.07;;
828;SDS011;396;52.558;13.188;2022-08-21T13:24:38;3.53;;;0.90;;
828;SDS011;396;52.558;13.188;2022-08-21T13:27:16;3.93;;;1.07;;
828;SDS011;396;52.558;13.188;2022-08-21T13:29:44;2.60;;;0.80;;
828;SDS011;396;52.558;13.188;2022-08-21T13:32:16;3.40;;;1.17;;
828;SDS011;396;52.558;13.188;2022-08-21T13:34:48;4.73;;;0.90;;
828;SDS011;396;52.558;13.188;2022-08-21T13:37:15;2.90;;;0.70;;
828;SDS011;396;52.558;13.188;2022-08-21T13:39:47;3.03;;;1.20;;
828;SDS011;396;52.558;13.188;2022-08-21T13:42:17;2.67;;;0.70;;
828;SDS011;396;52.558;13.188;2022-08-21T13:44:45;3.50;;;1.10;;
828;SDS011;396;52.558;13.188;2022-08-21T13:47:13;3.70;;;1.07;;
828;SDS011;396;52.558;13.188;2022-08-21T13:49:42;3.50;;;1.20;;
828;SDS011;396;52.558;13.188;2022-08-21T13:52:13;6.57;;;1.43;;
828;SDS011;396;52.558;13.188;2022-08-21T13:54:41;2.43;;;0.70;;
828;SDS011;396;52.558;13.188;2022-08-21T13:57:15;3.27;;;0.97;;
828;SDS011;396;52.558;13.188;2022-08-21T13:59:44;2.60;;;0.70;;
828;SDS011;396;52.558;13.188;2022-08-21T14:02:12;2.77;;;0.93;;
828;SDS011;396;52.558;13.188;2022-08-21T14:04:42;3.30;;;0.93;;
828;SDS011;396;52.558;13.188;2022-08-21T14:07:17;2.43;;;0.67;;
828;SDS011;396;52.558;13.188;2022-08-21T14:09:45;4.50;;;1.13;;
828;SDS011;396;52.558;13.188;2022-08-21T14:12:14;7.10;;;1.50;;
828;SDS011;396;52.558;13.188;2022-08-21T14:14:43;3.43;;;1.20;;
828;SDS011;396;52.558;13.188;2022-08-21T14:17:12;2.70;;;0.80;;
828;SDS011;396;52.558;13.188;2022-08-21T14:19:41;8.20;;;1.33;;
828;SDS011;396;52.558;13.188;2022-08-21T14:22:23;3.27;;;1.17;;
828;SDS011;396;52.558;13.188;2022-08-21T14:24:58;4.53;;;1.30;;
828;SDS011;396;52.558;13.188;2022-08-21T14:27:28;3.17;;;1.17;;
828;SDS011;396;52.558;13.188;2022-08-21T14:29:59;3.17;;;1.23;;
828;SDS011;396;52.558;13.188;2022-08-21T14:32:28;6.00;;;1.50;;
828;SDS011;396;52.558;13.188;2022-08-21T14:34:56;4.30;;;1.67;;
828;SDS011;396;52.558;13.188;2022-08-21T14:37:23;3.13;;;1.30;;
828;SDS011;396;52.558;13.188;2022-08-21T14:39:50;8.53;;;1.63;;
828;SDS011;396;52.558;13.188;2022-08-21T14:42:17;3.90;;;1.50;;
828;SDS011;396;52.558;13.188;2022-08-21T14:44:44;3.70;;;1.60;;
828;SDS011;396;52.558;13.188;2022-08-21T14:47:11;3.40;;;1.23;;
828;SDS011;396;52.558;13.188;2022-08-21T14:49:38;3.20;;;1.37;;
828;SDS011;396;52.558;13.188;2022-08-21T14:52:05;3.27;;;1.30;;
828;SDS011;396;52.558;13.188;2022-08-21T14:54:32;3.37;;;0.97;;
828;SDS011;396;52.558;13.188;2022-08-21T14:56:59;3.90;;;1.40;;
828;SDS011;396;52.558;13.188;2022-08-21T14:59:29;3.33;;;1.13;;
828;SDS011;396;52.558;13.188;2022-08-21T15:01:57;3.30;;;1.20;;
828;SDS011;396;52.558;13.188;2022-08-21T15:04:25;3.03;;;1.10;;
828;SDS011;396;52.558;13.188;2022-08-21T15:06:52;3.10;;;1.13;;
828;SDS011;396;52.558;13.188;2022-08-21T15:09:18;3.63;;;1.20;;
828;SDS011;396;52.558;13.188;2022-08-21T15:11:44;3.77;;;1.40;;
828;SDS011;396;52.558;13.188;2022-08-21T15:14:14;3.43;;;1.57;;
828;SDS011;396;52.558;13.188;2022-08-21T15:16:45;2.90;;;1.00;;
828;SDS011;396;52.558;13.188;2022-08-21T15:19:12;5.03;;;1.03;;
828;SDS011;396;52.558;13.188;2022-08-21T15:21:40;3.53;;;1.27;;
828;SDS011;396;52.558;13.188;2022-08-21T15:24:06;4.03;;;1.33;;
828;SDS011;396;52.558;13.188;2022-08-21T15:26:33;3.80;;;1.27;;
828;SDS011;396;52.558;13.188;2022-08-21T15:29:01;3.10;;;0.93;;
828;SDS011;396;52.558;13.188;2022-08-21T15:31:28;2.80;;;1.00;;
828;SDS011;396;52.558;13.188;2022-08-21T15:33:54;3.93;;;1.53;;
828;SDS011;396;52.558;13.188;2022-08-21T15:36:21;3.20;;;1.30;;
828;SDS011;396;52.558;13.188;2022-08-21T15:38:49;4.03;;;1.50;;
828;SDS011;396;52.558;13.188;2022-08-21T15:41:15;7.17;;;1.50;;
828;SDS011;396;52.558;13.188;2022-08-21T15:43:44;4.03;;;1.17;;
828;SDS011;396;52.558;13.188;2022-08-21T15:46:14;3.07;;;1.10;;
828;SDS011;396;52.558;13.188;2022-08-21T15:48:42;6.80;;;1.40;;